sensor_id;sensor_type;location;lat;lon;timestamp;temperature;humidity
59973;DHT22;55298;-36.624;-64.282;2023-08-31T00:00:54;14.40;29.00
59973;DHT22;55298;-36.624;-64.282;2023-08-31T00:03:23;14.40;28.90
59973;DHT22;55298;-36.624;-64.282;2023-08-31T00:05:50;14.40;29.00
59973;DHT22;55298;-36.624;-64.282;2023-08-31T00:08:18;14.30;28.80
59973;DHT22;55298;-36.624;-64.282;2023-08-31T00:11:00;14.30;29.40
59973;DHT22;55298;-36.624;-64.282;2023-08-31T00:13:28;14.30;29.50
59973;DHT22;55298;-36.624;-64.282;2023-08-31T00:15:57;14.20;29.60
59973;DHT22;55298;-36.624;-64.282;2023-08-31T00:18:26;14.10;29.80
59973;DHT22;55298;-36.624;-64.282;2023-08-31T00:20:54;14.10;30.10
59973;DHT22;55298;-36.624;-64.282;2023-08-31T00:23:22;14.10;29.80
59973;DHT22;55298;-36.624;-64.282;2023-08-31T00:25:50;14.00;30.00
59973;DHT22;55298;-36.624;-64.282;2023-08-31T00:28:19;13.90;30.20
59973;DHT22;55298;-36.624;-64.282;2023-08-31T00:30:47;13.90;30.70
59973;DHT22;55298;-36.624;-64.282;2023-08-31T00:33:16;13.90;30.60
59973;DHT22;55298;-36.624;-64.282;2023-08-31T00:35:44;13.80;30.50
59973;DHT22;55298;-36.624;-64.282;2023-08-31T00:38:13;13.80;30.70
59973;DHT22;55298;-36.624;-64.282;2023-08-31T00:40:42;13.70;30.90
59973;DHT22;55298;-36.624;-64.282;2023-08-31T00:43:14;13.70;31.20
59973;DHT22;55298;-36.624;-64.282;2023-08-31T00:45:44;13.70;31.40
59973;DHT22;55298;-36.624;-64.282;2023-08-31T00:48:13;13.70;31.20
59973;DHT22;55298;-36.624;-64.282;2023-08-31T00:50:42;13.70;31.40
59973;DHT22;55298;-36.624;-64.282;2023-08-31T00:53:09;13.60;31.50
59973;DHT22;55298;-36.624;-64.282;2023-08-31T00:55:37;13.60;31.50
59973;DHT22;55298;-36.624;-64.282;2023-08-31T00:58:07;13.60;31.60
59973;DHT22;55298;-36.624;-64.282;2023-08-31T01:01:03;13.40;31.80
59973;DHT22;55298;-36.624;-64.282;2023-08-31T01:03:58;13.30;31.60
59973;DHT22;55298;-36.624;-64.282;2023-08-31T01:06:41;13.20;31.90
59973;DHT22;55298;-36.624;-64.282;2023-08-31T01:09:36;13.20;32.20
59973;DHT22;55298;-36.624;-64.282;2023-08-31T01:12:11;13.20;31.80
59973;DHT22;55298;-36.624;-64.282;2023-08-31T01:14:54;13.00;31.90
59973;DHT22;55298;-36.624;-64.282;2023-08-31T01:17:29;13.00;32.10
59973;DHT22;55298;-36.624;-64.282;2023-08-31T01:19:59;13.00;31.90
59973;DHT22;55298;-36.624;-64.282;2023-08-31T01:22:39;12.90;31.70
59973;DHT22;55298;-36.624;-64.282;2023-08-31T01:25:10;12.90;31.90
59973;DHT22;55298;-36.624;-64.282;2023-08-31T01:27:39;12.80;32.40
59973;DHT22;55298;-36.624;-64.282;2023-08-31T01:30:08;12.70;32.70
59973;DHT22;55298;-36.624;-64.282;2023-08-31T01:32:37;12.80;32.70
59973;DHT22;55298;-36.624;-64.282;2023-08-31T01:35:06;12.60;32.90
59973;DHT22;55298;-36.624;-64.282;2023-08-31T01:37:53;12.60;33.10
59973;DHT22;55298;-36.624;-64.282;2023-08-31T01:40:31;12.60;32.70
59973;DHT22;55298;-36.624;-64.282;2023-08-31T01:43:03;12.60;32.80
59973;DHT22;55298;-36.624;-64.282;2023-08-31T01:45:34;12.50;32.90
59973;DHT22;55298;-36.624;-64.282;2023-08-31T01:48:05;12.50;33.00
59973;DHT22;55298;-36.624;-64.282;2023-08-31T01:50:33;12.50;33.10
59973;DHT22;55298;-36.624;-64.282;2023-08-31T01:53:00;12.50;33.00
59973;DHT22;55298;-36.624;-64.282;2023-08-31T01:55:30;12.50;32.70
59973;DHT22;55298;-36.624;-64.282;2023-08-31T01:57:58;12.50;32.60
59973;DHT22;55298;-36.624;-64.282;2023-08-31T02:00:27;12.40;32.90
59973;DHT22;55298;-36.624;-64.282;2023-08-31T02:02:55;12.40;32.90
59973;DHT22;55298;-36.624;-64.282;2023-08-31T02:05:23;12.40;32.90
59973;DHT22;55298;-36.624;-64.282;2023-08-31T02:07:50;12.30;33.40
59973;DHT22;55298;-36.624;-64.282;2023-08-31T02:10:18;12.40;33.10
59973;DHT22;55298;-36.624;-64.282;2023-08-31T02:12:46;12.40;32.80
59973;DHT22;55298;-36.624;-64.282;2023-08-31T02:15:13;12.30;33.20
59973;DHT22;55298;-36.624;-64.282;2023-08-31T02:17:41;12.30;33.60
59973;DHT22;55298;-36.624;-64.282;2023-08-31T02:20:10;12.30;33.40
59973;DHT22;55298;-36.624;-64.282;2023-08-31T02:22:38;12.30;33.60
59973;DHT22;55298;-36.624;-64.282;2023-08-31T02:25:08;12.20;33.50
59973;DHT22;55298;-36.624;-64.282;2023-08-31T02:27:47;12.10;33.50
59973;DHT22;55298;-36.624;-64.282;2023-08-31T02:30:17;12.10;34.40
59973;DHT22;55298;-36.624;-64.282;2023-08-31T02:32:48;12.00;34.40
59973;DHT22;55298;-36.624;-64.282;2023-08-31T02:35:16;12.00;35.00
59973;DHT22;55298;-36.624;-64.282;2023-08-31T02:37:43;11.90;35.00
59973;DHT22;55298;-36.624;-64.282;2023-08-31T02:40:11;11.90;35.30
59973;DHT22;55298;-36.624;-64.282;2023-08-31T02:42:39;11.90;35.10
59973;DHT22;55298;-36.624;-64.282;2023-08-31T02:45:07;11.80;35.00
59973;DHT22;55298;-36.624;-64.282;2023-08-31T02:47:35;11.80;34.90
59973;DHT22;55298;-36.624;-64.282;2023-08-31T02:50:03;11.70;35.10
59973;DHT22;55298;-36.624;-64.282;2023-08-31T02:52:32;11.60;35.20
59973;DHT22;55298;-36.624;-64.282;2023-08-31T02:55:00;11.70;35.10
59973;DHT22;55298;-36.624;-64.282;2023-08-31T02:57:28;11.60;35.30
59973;DHT22;55298;-36.624;-64.282;2023-08-31T02:59:55;11.50;34.80
59973;DHT22;55298;-36.624;-64.282;2023-08-31T03:02:23;11.50;35.00
59973;DHT22;55298;-36.624;-64.282;2023-08-31T03:04:51;11.40;34.90
59973;DHT22;55298;-36.624;-64.282;2023-08-31T03:07:19;11.40;35.90
59973;DHT22;55298;-36.624;-64.282;2023-08-31T03:09:49;11.40;35.00
59973;DHT22;55298;-36.624;-64.282;2023-08-31T03:12:17;11.40;36.10
59973;DHT22;55298;-36.624;-64.282;2023-08-31T03:14:45;11.40;36.10
59973;DHT22;55298;-36.624;-64.282;2023-08-31T03:17:14;11.30;36.20
59973;DHT22;55298;-36.624;-64.282;2023-08-31T03:19:42;11.40;36.20
59973;DHT22;55298;-36.624;-64.282;2023-08-31T03:22:09;11.30;35.80
59973;DHT22;55298;-36.624;-64.282;2023-08-31T03:24:37;11.30;35.20
59973;DHT22;55298;-36.624;-64.282;2023-08-31T03:27:05;11.30;35.50
59973;DHT22;55298;-36.624;-64.282;2023-08-31T03:29:33;11.20;35.70
59973;DHT22;55298;-36.624;-64.282;2023-08-31T03:32:01;11.20;36.40
59973;DHT22;55298;-36.624;-64.282;2023-08-31T03:34:31;11.20;36.50
59973;DHT22;55298;-36.624;-64.282;2023-08-31T03:36:59;11.10;36.50
59973;DHT22;55298;-36.624;-64.282;2023-08-31T03:39:28;11.10;36.30
59973;DHT22;55298;-36.624;-64.282;2023-08-31T03:41:56;11.10;36.10
59973;DHT22;55298;-36.624;-64.282;2023-08-31T03:44:24;11.00;36.20
59973;DHT22;55298;-36.624;-64.282;2023-08-31T03:46:53;11.00;36.80
59973;DHT22;55298;-36.624;-64.282;2023-08-31T03:49:20;10.90;37.10
59973;DHT22;55298;-36.624;-64.282;2023-08-31T03:51:48;10.90;37.00
59973;DHT22;55298;-36.624;-64.282;2023-08-31T03:54:16;10.90;36.90
59973;DHT22;55298;-36.624;-64.282;2023-08-31T03:56:44;10.80;37.60
59973;DHT22;55298;-36.624;-64.282;2023-08-31T03:59:12;10.80;37.30
59973;DHT22;55298;-36.624;-64.282;2023-08-31T04:01:40;10.80;37.00
59973;DHT22;55298;-36.624;-64.282;2023-08-31T04:04:08;10.70;37.50
59973;DHT22;55298;-36.624;-64.282;2023-08-31T04:06:35;10.70;38.10
59973;DHT22;55298;-36.624;-64.282;2023-08-31T04:09:03;10.60;37.90
59973;DHT22;55298;-36.624;-64.282;2023-08-31T04:11:34;10.60;37.90
59973;DHT22;55298;-36.624;-64.282;2023-08-31T04:14:02;10.50;38.40
59973;DHT22;55298;-36.624;-64.282;2023-08-31T04:16:30;10.50;38.10
59973;DHT22;55298;-36.624;-64.282;2023-08-31T04:18:57;10.40;38.00
59973;DHT22;55298;-36.624;-64.282;2023-08-31T04:21:25;10.40;38.30
59973;DHT22;55298;-36.624;-64.282;2023-08-31T04:23:53;10.40;38.30
59973;DHT22;55298;-36.624;-64.282;2023-08-31T04:26:21;10.30;38.50
59973;DHT22;55298;-36.624;-64.282;2023-08-31T04:28:48;10.20;37.30
59973;DHT22;55298;-36.624;-64.282;2023-08-31T04:31:16;10.30;37.90
59973;DHT22;55298;-36.624;-64.282;2023-08-31T04:33:44;10.20;38.90
59973;DHT22;55298;-36.624;-64.282;2023-08-31T04:36:13;10.20;39.10
59973;DHT22;55298;-36.624;-64.282;2023-08-31T04:38:41;10.20;38.60
59973;DHT22;55298;-36.624;-64.282;2023-08-31T04:41:15;10.20;39.10
59973;DHT22;55298;-36.624;-64.282;2023-08-31T04:43:44;10.10;38.20
59973;DHT22;55298;-36.624;-64.282;2023-08-31T04:46:15;9.90;38.50
59973;DHT22;55298;-36.624;-64.282;2023-08-31T04:48:42;10.10;39.80
59973;DHT22;55298;-36.624;-64.282;2023-08-31T04:51:35;10.00;39.00
59973;DHT22;55298;-36.624;-64.282;2023-08-31T04:54:06;10.00;38.10
59973;DHT22;55298;-36.624;-64.282;2023-08-31T04:56:34;9.90;39.10
59973;DHT22;55298;-36.624;-64.282;2023-08-31T04:59:02;9.90;40.30
59973;DHT22;55298;-36.624;-64.282;2023-08-31T05:01:30;9.90;39.30
59973;DHT22;55298;-36.624;-64.282;2023-08-31T05:03:58;9.90;39.70
59973;DHT22;55298;-36.624;-64.282;2023-08-31T05:06:26;9.80;40.50
59973;DHT22;55298;-36.624;-64.282;2023-08-31T05:08:56;9.80;41.00
59973;DHT22;55298;-36.624;-64.282;2023-08-31T05:11:24;9.80;41.00
59973;DHT22;55298;-36.624;-64.282;2023-08-31T05:13:51;9.70;41.10
59973;DHT22;55298;-36.624;-64.282;2023-08-31T05:16:19;9.70;41.90
59973;DHT22;55298;-36.624;-64.282;2023-08-31T05:18:49;9.60;42.40
59973;DHT22;55298;-36.624;-64.282;2023-08-31T05:21:17;9.50;42.00
59973;DHT22;55298;-36.624;-64.282;2023-08-31T05:23:44;9.50;41.30
59973;DHT22;55298;-36.624;-64.282;2023-08-31T05:26:12;9.40;41.80
59973;DHT22;55298;-36.624;-64.282;2023-08-31T05:28:41;9.40;40.90
59973;DHT22;55298;-36.624;-64.282;2023-08-31T05:31:10;9.30;41.30
59973;DHT22;55298;-36.624;-64.282;2023-08-31T05:33:38;9.20;42.50
59973;DHT22;55298;-36.624;-64.282;2023-08-31T05:36:05;9.20;42.10
59973;DHT22;55298;-36.624;-64.282;2023-08-31T05:38:33;9.10;41.20
59973;DHT22;55298;-36.624;-64.282;2023-08-31T05:41:05;9.10;42.20
59973;DHT22;55298;-36.624;-64.282;2023-08-31T05:43:34;9.00;42.40
59973;DHT22;55298;-36.624;-64.282;2023-08-31T05:46:02;8.90;42.60
59973;DHT22;55298;-36.624;-64.282;2023-08-31T05:48:30;8.90;43.10
59973;DHT22;55298;-36.624;-64.282;2023-08-31T05:50:58;8.70;43.40
59973;DHT22;55298;-36.624;-64.282;2023-08-31T05:53:25;8.70;43.20
59973;DHT22;55298;-36.624;-64.282;2023-08-31T05:55:55;8.60;43.60
59973;DHT22;55298;-36.624;-64.282;2023-08-31T05:58:32;8.60;44.10
59973;DHT22;55298;-36.624;-64.282;2023-08-31T06:01:01;8.40;45.30
59973;DHT22;55298;-36.624;-64.282;2023-08-31T06:03:29;8.30;44.70
59973;DHT22;55298;-36.624;-64.282;2023-08-31T06:05:58;8.20;44.80
59973;DHT22;55298;-36.624;-64.282;2023-08-31T06:08:26;8.20;44.70
59973;DHT22;55298;-36.624;-64.282;2023-08-31T06:10:54;8.10;45.40
59973;DHT22;55298;-36.624;-64.282;2023-08-31T06:13:22;8.10;44.80
59973;DHT22;55298;-36.624;-64.282;2023-08-31T06:15:49;8.00;45.60
59973;DHT22;55298;-36.624;-64.282;2023-08-31T06:18:17;8.00;45.20
59973;DHT22;55298;-36.624;-64.282;2023-08-31T06:20:45;7.80;45.70
59973;DHT22;55298;-36.624;-64.282;2023-08-31T06:23:15;7.90;46.00
59973;DHT22;55298;-36.624;-64.282;2023-08-31T06:25:43;7.90;45.50
59973;DHT22;55298;-36.624;-64.282;2023-08-31T06:28:12;7.70;46.00
59973;DHT22;55298;-36.624;-64.282;2023-08-31T06:30:41;7.80;46.10
59973;DHT22;55298;-36.624;-64.282;2023-08-31T06:33:15;7.80;45.90
59973;DHT22;55298;-36.624;-64.282;2023-08-31T06:35:46;7.80;45.90
59973;DHT22;55298;-36.624;-64.282;2023-08-31T06:38:19;7.70;46.10
59973;DHT22;55298;-36.624;-64.282;2023-08-31T06:40:47;7.70;46.90
59973;DHT22;55298;-36.624;-64.282;2023-08-31T06:43:15;7.70;46.20
59973;DHT22;55298;-36.624;-64.282;2023-08-31T06:45:42;7.70;46.30
59973;DHT22;55298;-36.624;-64.282;2023-08-31T06:48:10;7.60;45.90
59973;DHT22;55298;-36.624;-64.282;2023-08-31T06:50:38;7.60;46.50
59973;DHT22;55298;-36.624;-64.282;2023-08-31T06:53:05;7.60;46.50
59973;DHT22;55298;-36.624;-64.282;2023-08-31T06:55:33;7.50;46.70
59973;DHT22;55298;-36.624;-64.282;2023-08-31T06:58:02;7.50;46.80
59973;DHT22;55298;-36.624;-64.282;2023-08-31T07:00:31;7.40;46.80
59973;DHT22;55298;-36.624;-64.282;2023-08-31T07:02:59;7.30;46.90
59973;DHT22;55298;-36.624;-64.282;2023-08-31T07:05:27;7.30;46.90
59973;DHT22;55298;-36.624;-64.282;2023-08-31T07:07:56;7.30;46.70
59973;DHT22;55298;-36.624;-64.282;2023-08-31T07:10:25;7.30;45.90
59973;DHT22;55298;-36.624;-64.282;2023-08-31T07:12:52;7.30;46.40
59973;DHT22;55298;-36.624;-64.282;2023-08-31T07:15:20;7.20;47.00
59973;DHT22;55298;-36.624;-64.282;2023-08-31T07:17:48;7.30;46.80
59973;DHT22;55298;-36.624;-64.282;2023-08-31T07:20:16;7.30;46.50
59973;DHT22;55298;-36.624;-64.282;2023-08-31T07:22:44;7.30;46.00
59973;DHT22;55298;-36.624;-64.282;2023-08-31T07:25:11;7.30;45.80
59973;DHT22;55298;-36.624;-64.282;2023-08-31T07:27:39;7.30;46.30
59973;DHT22;55298;-36.624;-64.282;2023-08-31T07:30:07;7.30;46.30
59973;DHT22;55298;-36.624;-64.282;2023-08-31T07:32:34;7.30;46.10
59973;DHT22;55298;-36.624;-64.282;2023-08-31T07:35:02;7.30;46.80
59973;DHT22;55298;-36.624;-64.282;2023-08-31T07:37:31;7.20;47.30
59973;DHT22;55298;-36.624;-64.282;2023-08-31T07:39:59;7.20;47.40
59973;DHT22;55298;-36.624;-64.282;2023-08-31T07:42:26;7.10;48.10
59973;DHT22;55298;-36.624;-64.282;2023-08-31T07:44:54;7.10;48.50
59973;DHT22;55298;-36.624;-64.282;2023-08-31T07:47:22;7.00;48.30
59973;DHT22;55298;-36.624;-64.282;2023-08-31T07:49:50;7.00;49.00
59973;DHT22;55298;-36.624;-64.282;2023-08-31T07:52:18;6.80;49.40
59973;DHT22;55298;-36.624;-64.282;2023-08-31T07:54:46;6.80;49.40
59973;DHT22;55298;-36.624;-64.282;2023-08-31T07:57:15;6.80;48.80
59973;DHT22;55298;-36.624;-64.282;2023-08-31T07:59:42;6.70;49.40
59973;DHT22;55298;-36.624;-64.282;2023-08-31T08:02:10;6.70;48.80
59973;DHT22;55298;-36.624;-64.282;2023-08-31T08:04:38;6.80;49.30
59973;DHT22;55298;-36.624;-64.282;2023-08-31T08:07:05;6.70;48.80
59973;DHT22;55298;-36.624;-64.282;2023-08-31T08:09:33;6.80;48.60
59973;DHT22;55298;-36.624;-64.282;2023-08-31T08:12:01;6.70;48.30
59973;DHT22;55298;-36.624;-64.282;2023-08-31T08:14:30;6.70;47.90
59973;DHT22;55298;-36.624;-64.282;2023-08-31T08:16:57;6.70;46.60
59973;DHT22;55298;-36.624;-64.282;2023-08-31T08:19:25;6.70;46.10
59973;DHT22;55298;-36.624;-64.282;2023-08-31T08:21:53;6.70;46.90
59973;DHT22;55298;-36.624;-64.282;2023-08-31T08:24:21;6.60;47.50
59973;DHT22;55298;-36.624;-64.282;2023-08-31T08:26:49;6.60;48.10
59973;DHT22;55298;-36.624;-64.282;2023-08-31T08:29:17;6.60;47.80
59973;DHT22;55298;-36.624;-64.282;2023-08-31T08:31:44;6.60;48.20
59973;DHT22;55298;-36.624;-64.282;2023-08-31T08:34:12;6.60;48.20
59973;DHT22;55298;-36.624;-64.282;2023-08-31T08:36:40;6.70;48.90
59973;DHT22;55298;-36.624;-64.282;2023-08-31T08:39:07;6.60;49.00
59973;DHT22;55298;-36.624;-64.282;2023-08-31T08:41:36;6.60;49.30
59973;DHT22;55298;-36.624;-64.282;2023-08-31T08:44:05;6.70;49.40
59973;DHT22;55298;-36.624;-64.282;2023-08-31T08:46:34;6.70;49.30
59973;DHT22;55298;-36.624;-64.282;2023-08-31T08:49:03;6.70;48.60
59973;DHT22;55298;-36.624;-64.282;2023-08-31T08:51:32;6.70;48.40
59973;DHT22;55298;-36.624;-64.282;2023-08-31T08:54:01;6.70;48.20
59973;DHT22;55298;-36.624;-64.282;2023-08-31T08:56:30;6.80;48.60
59973;DHT22;55298;-36.624;-64.282;2023-08-31T08:58:57;6.80;48.60
59973;DHT22;55298;-36.624;-64.282;2023-08-31T09:01:25;6.80;48.30
59973;DHT22;55298;-36.624;-64.282;2023-08-31T09:03:53;6.80;48.50
59973;DHT22;55298;-36.624;-64.282;2023-08-31T09:06:22;6.80;48.40
59973;DHT22;55298;-36.624;-64.282;2023-08-31T09:08:57;6.80;48.30
59973;DHT22;55298;-36.624;-64.282;2023-08-31T09:11:25;6.80;48.10
59973;DHT22;55298;-36.624;-64.282;2023-08-31T09:13:53;6.80;48.50
59973;DHT22;55298;-36.624;-64.282;2023-08-31T09:16:31;6.80;48.30
59973;DHT22;55298;-36.624;-64.282;2023-08-31T09:18:59;6.80;48.80
59973;DHT22;55298;-36.624;-64.282;2023-08-31T09:21:36;6.80;48.30
59973;DHT22;55298;-36.624;-64.282;2023-08-31T09:24:07;6.80;48.40
59973;DHT22;55298;-36.624;-64.282;2023-08-31T09:26:39;6.80;48.10
59973;DHT22;55298;-36.624;-64.282;2023-08-31T09:29:07;6.80;48.60
59973;DHT22;55298;-36.624;-64.282;2023-08-31T09:31:35;6.70;49.10
59973;DHT22;55298;-36.624;-64.282;2023-08-31T09:34:04;6.80;48.80
59973;DHT22;55298;-36.624;-64.282;2023-08-31T09:36:32;6.70;47.90
59973;DHT22;55298;-36.624;-64.282;2023-08-31T09:39:00;6.70;48.40
59973;DHT22;55298;-36.624;-64.282;2023-08-31T09:41:28;6.80;48.50
59973;DHT22;55298;-36.624;-64.282;2023-08-31T09:43:56;6.60;48.00
59973;DHT22;55298;-36.624;-64.282;2023-08-31T09:46:25;6.60;48.70
59973;DHT22;55298;-36.624;-64.282;2023-08-31T09:48:53;6.60;49.20
59973;DHT22;55298;-36.624;-64.282;2023-08-31T09:51:22;6.50;48.50
59973;DHT22;55298;-36.624;-64.282;2023-08-31T09:53:54;6.50;49.50
59973;DHT22;55298;-36.624;-64.282;2023-08-31T09:56:24;6.50;48.60
59973;DHT22;55298;-36.624;-64.282;2023-08-31T09:58:54;6.50;48.80
59973;DHT22;55298;-36.624;-64.282;2023-08-31T10:01:22;6.50;49.30
59973;DHT22;55298;-36.624;-64.282;2023-08-31T10:03:50;6.50;49.80
59973;DHT22;55298;-36.624;-64.282;2023-08-31T10:06:19;6.50;48.60
59973;DHT22;55298;-36.624;-64.282;2023-08-31T10:08:48;6.50;49.40
59973;DHT22;55298;-36.624;-64.282;2023-08-31T10:11:16;6.60;49.30
59973;DHT22;55298;-36.624;-64.282;2023-08-31T10:13:45;6.60;49.00
59973;DHT22;55298;-36.624;-64.282;2023-08-31T10:16:14;6.60;48.30
59973;DHT22;55298;-36.624;-64.282;2023-08-31T10:18:44;6.60;47.80
59973;DHT22;55298;-36.624;-64.282;2023-08-31T10:21:15;6.60;47.40
59973;DHT22;55298;-36.624;-64.282;2023-08-31T10:23:48;6.60;47.90
59973;DHT22;55298;-36.624;-64.282;2023-08-31T10:26:22;6.60;48.60
59973;DHT22;55298;-36.624;-64.282;2023-08-31T10:28:49;6.60;49.30
59973;DHT22;55298;-36.624;-64.282;2023-08-31T10:31:19;6.70;49.20
59973;DHT22;55298;-36.624;-64.282;2023-08-31T10:34:08;6.70;49.00
59973;DHT22;55298;-36.624;-64.282;2023-08-31T10:36:44;6.70;49.40
59973;DHT22;55298;-36.624;-64.282;2023-08-31T10:39:15;6.70;48.60
59973;DHT22;55298;-36.624;-64.282;2023-08-31T10:41:55;6.70;48.90
59973;DHT22;55298;-36.624;-64.282;2023-08-31T10:44:25;6.70;48.90
59973;DHT22;55298;-36.624;-64.282;2023-08-31T10:46:54;6.80;48.90
59973;DHT22;55298;-36.624;-64.282;2023-08-31T10:49:23;6.80;48.50
59973;DHT22;55298;-36.624;-64.282;2023-08-31T10:52:15;6.80;48.90
59973;DHT22;55298;-36.624;-64.282;2023-08-31T10:54:51;6.80;49.10
59973;DHT22;55298;-36.624;-64.282;2023-08-31T10:57:30;6.90;48.70
59973;DHT22;55298;-36.624;-64.282;2023-08-31T10:59:58;6.90;49.00
59973;DHT22;55298;-36.624;-64.282;2023-08-31T11:02:46;7.00;48.40
59973;DHT22;55298;-36.624;-64.282;2023-08-31T11:05:18;7.00;48.90
59973;DHT22;55298;-36.624;-64.282;2023-08-31T11:07:48;7.00;48.80
59973;DHT22;55298;-36.624;-64.282;2023-08-31T11:10:19;7.10;48.50
59973;DHT22;55298;-36.624;-64.282;2023-08-31T11:12:53;7.10;48.40
59973;DHT22;55298;-36.624;-64.282;2023-08-31T11:15:24;7.10;48.10
59973;DHT22;55298;-36.624;-64.282;2023-08-31T11:17:54;7.10;47.70
59973;DHT22;55298;-36.624;-64.282;2023-08-31T11:20:28;7.10;47.50
59973;DHT22;55298;-36.624;-64.282;2023-08-31T11:22:59;7.20;47.70
59973;DHT22;55298;-36.624;-64.282;2023-08-31T11:25:31;7.20;48.90
59973;DHT22;55298;-36.624;-64.282;2023-08-31T11:28:03;7.30;48.60
59973;DHT22;55298;-36.624;-64.282;2023-08-31T11:30:32;7.30;49.10
59973;DHT22;55298;-36.624;-64.282;2023-08-31T11:33:05;7.40;49.50
59973;DHT22;55298;-36.624;-64.282;2023-08-31T11:35:39;7.50;49.80
59973;DHT22;55298;-36.624;-64.282;2023-08-31T11:38:09;7.60;49.00
59973;DHT22;55298;-36.624;-64.282;2023-08-31T11:40:37;7.70;50.30
59973;DHT22;55298;-36.624;-64.282;2023-08-31T11:43:06;7.70;50.80
59973;DHT22;55298;-36.624;-64.282;2023-08-31T11:45:42;7.80;51.30
59973;DHT22;55298;-36.624;-64.282;2023-08-31T11:48:14;7.70;51.10
59973;DHT22;55298;-36.624;-64.282;2023-08-31T11:50:50;7.80;50.20
59973;DHT22;55298;-36.624;-64.282;2023-08-31T11:53:26;7.80;50.60
59973;DHT22;55298;-36.624;-64.282;2023-08-31T11:56:07;7.70;50.60
59973;DHT22;55298;-36.624;-64.282;2023-08-31T11:58:42;7.70;50.90
59973;DHT22;55298;-36.624;-64.282;2023-08-31T12:01:21;7.80;51.10
59973;DHT22;55298;-36.624;-64.282;2023-08-31T12:06:22;7.70;50.40
59973;DHT22;55298;-36.624;-64.282;2023-08-31T12:08:52;7.80;49.80
59973;DHT22;55298;-36.624;-64.282;2023-08-31T12:11:21;8.40;47.90
59973;DHT22;55298;-36.624;-64.282;2023-08-31T12:13:51;8.40;49.00
59973;DHT22;55298;-36.624;-64.282;2023-08-31T12:16:24;8.70;46.20
59973;DHT22;55298;-36.624;-64.282;2023-08-31T12:19:16;8.80;45.90
59973;DHT22;55298;-36.624;-64.282;2023-08-31T12:22:11;8.80;46.10
59973;DHT22;55298;-36.624;-64.282;2023-08-31T12:24:41;7.80;46.00
59973;DHT22;55298;-36.624;-64.282;2023-08-31T12:27:10;9.10;45.70
59973;DHT22;55298;-36.624;-64.282;2023-08-31T12:29:41;9.20;45.10
59973;DHT22;55298;-36.624;-64.282;2023-08-31T12:32:17;9.40;44.80
59973;DHT22;55298;-36.624;-64.282;2023-08-31T12:34:45;9.30;44.90
59973;DHT22;55298;-36.624;-64.282;2023-08-31T12:40:20;9.40;45.00
59973;DHT22;55298;-36.624;-64.282;2023-08-31T12:43:09;9.40;44.90
59973;DHT22;55298;-36.624;-64.282;2023-08-31T12:45:43;9.70;45.00
59973;DHT22;55298;-36.624;-64.282;2023-08-31T12:50:50;10.00;44.80
59973;DHT22;55298;-36.624;-64.282;2023-08-31T12:53:22;10.10;45.30
59973;DHT22;55298;-36.624;-64.282;2023-08-31T12:55:50;10.20;45.10
59973;DHT22;55298;-36.624;-64.282;2023-08-31T12:58:18;10.50;45.20
59973;DHT22;55298;-36.624;-64.282;2023-08-31T13:00:47;10.90;44.60
59973;DHT22;55298;-36.624;-64.282;2023-08-31T13:03:16;12.10;43.20
59973;DHT22;55298;-36.624;-64.282;2023-08-31T13:05:45;13.50;40.40
59973;DHT22;55298;-36.624;-64.282;2023-08-31T13:08:16;15.20;37.90
59973;DHT22;55298;-36.624;-64.282;2023-08-31T13:11:06;16.80;34.70
59973;DHT22;55298;-36.624;-64.282;2023-08-31T13:13:46;18.00;31.80
59973;DHT22;55298;-36.624;-64.282;2023-08-31T13:16:16;18.10;30.00
59973;DHT22;55298;-36.624;-64.282;2023-08-31T13:18:44;17.80;30.20
59973;DHT22;55298;-36.624;-64.282;2023-08-31T13:21:13;18.10;30.40
59973;DHT22;55298;-36.624;-64.282;2023-08-31T13:23:40;18.30;30.00
59973;DHT22;55298;-36.624;-64.282;2023-08-31T13:26:12;18.30;30.20
59973;DHT22;55298;-36.624;-64.282;2023-08-31T13:28:43;17.80;30.80
59973;DHT22;55298;-36.624;-64.282;2023-08-31T13:31:11;17.40;31.00
59973;DHT22;55298;-36.624;-64.282;2023-08-31T13:33:47;16.60;31.90
59973;DHT22;55298;-36.624;-64.282;2023-08-31T13:36:15;16.10;33.60
59973;DHT22;55298;-36.624;-64.282;2023-08-31T13:38:43;15.70;33.40
59973;DHT22;55298;-36.624;-64.282;2023-08-31T13:41:11;15.60;34.30
59973;DHT22;55298;-36.624;-64.282;2023-08-31T13:43:39;16.20;34.80
59973;DHT22;55298;-36.624;-64.282;2023-08-31T13:46:10;17.10;33.50
59973;DHT22;55298;-36.624;-64.282;2023-08-31T13:48:38;17.30;32.70
59973;DHT22;55298;-36.624;-64.282;2023-08-31T13:51:07;18.00;31.80
59973;DHT22;55298;-36.624;-64.282;2023-08-31T13:53:35;19.10;28.60
59973;DHT22;55298;-36.624;-64.282;2023-08-31T13:56:04;19.90;28.00
59973;DHT22;55298;-36.624;-64.282;2023-08-31T13:58:32;20.70;27.00
59973;DHT22;55298;-36.624;-64.282;2023-08-31T14:01:05;21.30;26.20
59973;DHT22;55298;-36.624;-64.282;2023-08-31T14:03:33;21.50;24.40
59973;DHT22;55298;-36.624;-64.282;2023-08-31T14:06:00;21.30;23.90
59973;DHT22;55298;-36.624;-64.282;2023-08-31T14:08:29;21.20;25.30
59973;DHT22;55298;-36.624;-64.282;2023-08-31T14:10:57;21.40;24.70
59973;DHT22;55298;-36.624;-64.282;2023-08-31T14:13:25;21.40;23.80
59973;DHT22;55298;-36.624;-64.282;2023-08-31T14:15:53;21.30;23.90
59973;DHT22;55298;-36.624;-64.282;2023-08-31T14:18:21;21.20;23.70
59973;DHT22;55298;-36.624;-64.282;2023-08-31T14:20:53;21.10;24.10
59973;DHT22;55298;-36.624;-64.282;2023-08-31T14:23:27;21.30;24.20
59973;DHT22;55298;-36.624;-64.282;2023-08-31T14:26:04;21.50;24.30
59973;DHT22;55298;-36.624;-64.282;2023-08-31T14:28:36;21.80;23.30
59973;DHT22;55298;-36.624;-64.282;2023-08-31T14:31:08;21.80;22.80
59973;DHT22;55298;-36.624;-64.282;2023-08-31T14:33:38;21.70;22.70
59973;DHT22;55298;-36.624;-64.282;2023-08-31T14:36:05;21.50;23.00
59973;DHT22;55298;-36.624;-64.282;2023-08-31T14:38:37;21.60;23.20
59973;DHT22;55298;-36.624;-64.282;2023-08-31T14:41:05;21.40;22.80
59973;DHT22;55298;-36.624;-64.282;2023-08-31T14:43:37;21.10;23.20
59973;DHT22;55298;-36.624;-64.282;2023-08-31T14:46:06;20.80;23.30
59973;DHT22;55298;-36.624;-64.282;2023-08-31T14:48:34;20.50;23.50
59973;DHT22;55298;-36.624;-64.282;2023-08-31T14:51:03;20.50;23.80
59973;DHT22;55298;-36.624;-64.282;2023-08-31T14:53:31;20.60;23.70
59973;DHT22;55298;-36.624;-64.282;2023-08-31T14:56:08;20.90;23.50
59973;DHT22;55298;-36.624;-64.282;2023-08-31T14:58:36;21.00;23.20
59973;DHT22;55298;-36.624;-64.282;2023-08-31T15:01:04;20.90;23.30
59973;DHT22;55298;-36.624;-64.282;2023-08-31T15:03:31;20.60;23.70
59973;DHT22;55298;-36.624;-64.282;2023-08-31T15:05:59;20.60;23.70
59973;DHT22;55298;-36.624;-64.282;2023-08-31T15:08:39;20.30;23.60
59973;DHT22;55298;-36.624;-64.282;2023-08-31T15:11:09;19.80;23.90
59973;DHT22;55298;-36.624;-64.282;2023-08-31T15:14:00;19.30;24.40
59973;DHT22;55298;-36.624;-64.282;2023-08-31T15:16:28;18.80;25.00
59973;DHT22;55298;-36.624;-64.282;2023-08-31T15:18:56;18.40;25.20
59973;DHT22;55298;-36.624;-64.282;2023-08-31T15:21:24;17.90;25.80